Time;durP1;ratioP1;P1;durP2;ratioP2;P2;SDS_P1;SDS_P2;PMS_P1;PMS_P2;Temp;Humidity;BMP_temperature;BMP_pressure;BME280_temperature;BME280_humidity;BME280_pressure;Samples;Min_cycle;Max_cycle;Signal;HPM_P1;HPM_P2
2024/02/08 00:00:45;;;;;;;108.68;49.08;;;0.40;99.90;;;;;;5047033;28;20060;-77
2024/02/08 00:03:13;;;;;;;106.43;47.00;;;0.40;99.90;;;;;;5045922;28;20052;-77
2024/02/08 00:05:40;;;;;;;108.15;50.83;;;0.40;99.90;;;;;;5049044;28;20055;-77
2024/02/08 00:08:08;;;;;;;94.43;42.72;;;0.40;99.90;;;;;;5048974;28;20156;-77
2024/02/08 00:10:35;;;;;;;113.25;48.28;;;0.60;99.90;;;;;;5050611;28;20060;-77
2024/02/08 00:13:02;;;;;;;105.88;50.75;;;0.60;99.90;;;;;;5049391;28;20128;-77
2024/02/08 00:15:31;;;;;;;119.50;48.35;;;0.50;99.90;;;;;;5049510;28;20055;-76
2024/02/08 00:17:58;;;;;;;102.97;45.17;;;0.70;99.90;;;;;;5051493;28;20545;-76
2024/02/08 00:20:27;;;;;;;108.07;45.83;;;0.80;99.90;;;;;;5045842;28;20539;-76
2024/02/08 00:22:55;;;;;;;99.35;46.15;;;0.70;99.90;;;;;;5046847;28;20659;-77
2024/02/08 00:25:23;;;;;;;114.28;43.85;;;0.60;99.90;;;;;;5049176;28;20470;-77
2024/02/08 00:27:52;;;;;;;118.25;42.63;;;0.60;99.90;;;;;;5049989;28;20045;-77
2024/02/08 00:30:19;;;;;;;118.63;45.53;;;0.60;99.90;;;;;;5045277;28;20043;-77
2024/02/08 00:32:46;;;;;;;134.05;45.53;;;0.70;99.90;;;;;;5052109;28;20475;-76
2024/02/08 00:35:19;;;;;;;111.90;45.70;;;0.80;99.90;;;;;;5048863;28;20049;-76
2024/02/08 00:37:47;;;;;;;106.90;41.83;;;0.80;99.90;;;;;;5052496;28;20847;-77
2024/02/08 00:40:16;;;;;;;103.95;41.85;;;0.70;99.90;;;;;;5043129;28;20813;-76
2024/02/08 00:42:45;;;;;;;111.47;40.58;;;0.50;99.90;;;;;;5050907;28;20053;-76
2024/02/08 00:45:16;;;;;;;99.80;40.75;;;0.50;99.90;;;;;;5051538;28;20047;-76
2024/02/08 00:47:43;;;;;;;113.28;39.63;;;0.60;99.90;;;;;;5052982;28;20068;-76
2024/02/08 00:50:12;;;;;;;92.97;37.78;;;0.60;99.90;;;;;;5050673;28;20036;-76
2024/02/08 00:52:40;;;;;;;103.68;39.78;;;0.70;99.90;;;;;;5048390;28;20729;-76
2024/02/08 00:55:09;;;;;;;107.30;42.63;;;0.70;99.90;;;;;;5053914;28;20053;-76
2024/02/08 00:57:35;;;;;;;95.03;40.63;;;0.80;99.90;;;;;;5053046;28;20529;-76
2024/02/08 01:00:02;;;;;;;92.90;40.08;;;0.80;99.90;;;;;;5051030;28;20055;-77
2024/02/08 01:02:29;;;;;;;101.32;42.05;;;0.70;99.90;;;;;;5070066;28;20419;-77
2024/02/08 01:04:56;;;;;;;97.00;40.75;;;0.60;99.90;;;;;;5053814;28;20068;-77
2024/02/08 01:07:23;;;;;;;96.32;41.55;;;0.60;99.90;;;;;;5068393;28;20048;-77
2024/02/08 01:09:50;;;;;;;95.28;39.55;;;0.60;99.90;;;;;;5051517;28;20064;-76
2024/02/08 01:12:21;;;;;;;94.53;40.45;;;0.60;99.90;;;;;;5042476;28;20856;-76
2024/02/08 01:14:48;;;;;;;91.53;39.42;;;0.50;99.90;;;;;;5057823;28;20711;-77
2024/02/08 01:17:16;;;;;;;103.65;42.95;;;0.50;99.90;;;;;;5051153;28;20411;-76
2024/02/08 01:19:43;;;;;;;94.32;41.28;;;0.50;99.90;;;;;;5052732;28;20159;-76
2024/02/08 01:22:19;;;;;;;87.03;40.95;;;0.60;99.90;;;;;;5049999;28;20474;-77
2024/02/08 01:24:49;;;;;;;113.95;44.45;;;0.60;99.90;;;;;;5056009;28;20135;-76
2024/02/08 01:27:20;;;;;;;97.35;42.63;;;0.50;99.90;;;;;;5049431;28;20213;-76
2024/02/08 01:29:49;;;;;;;109.85;43.55;;;0.60;99.90;;;;;;5050711;28;20132;-76
2024/02/08 01:32:17;;;;;;;117.32;45.90;;;0.50;99.90;;;;;;5045797;28;20070;-76
2024/02/08 01:34:44;;;;;;;106.72;42.70;;;0.80;99.90;;;;;;5052964;28;20040;-76
2024/02/08 01:37:14;;;;;;;112.18;44.15;;;0.90;99.90;;;;;;5052911;28;20629;-76
2024/02/08 01:39:43;;;;;;;97.85;44.42;;;0.90;99.90;;;;;;5056451;28;20067;-76
2024/02/08 01:42:11;;;;;;;107.20;44.30;;;0.70;99.90;;;;;;5050038;28;20040;-76
2024/02/08 01:44:47;;;;;;;109.13;45.78;;;0.70;99.90;;;;;;5055524;28;20048;-77
2024/02/08 01:47:17;;;;;;;104.05;42.70;;;0.70;99.90;;;;;;5052114;28;20059;-76
2024/02/08 01:49:46;;;;;;;98.75;42.30;;;0.80;99.90;;;;;;5068260;28;20049;-77
2024/02/08 01:52:18;;;;;;;83.57;42.05;;;0.80;99.90;;;;;;5045944;28;20067;-77
2024/02/08 01:54:48;;;;;;;105.07;43.17;;;0.80;99.90;;;;;;5051658;28;20068;-76
2024/02/08 01:57:15;;;;;;;108.40;45.88;;;0.80;99.90;;;;;;5050708;28;20945;-76
2024/02/08 01:59:52;;;;;;;100.72;42.45;;;1.00;99.90;;;;;;5051629;28;20048;-76
2024/02/08 02:02:21;;;;;;;107.88;44.17;;;1.00;99.90;;;;;;5047473;28;20048;-77
2024/02/08 02:04:48;;;;;;;110.18;41.55;;;1.00;99.90;;;;;;5051886;28;20489;-76
2024/02/08 02:07:15;;;;;;;116.78;45.58;;;1.00;99.90;;;;;;5052505;28;20040;-78
2024/02/08 02:09:42;;;;;;;104.85;43.10;;;1.10;99.90;;;;;;5055814;28;20098;-77
2024/02/08 02:12:16;;;;;;;117.30;45.42;;;1.10;99.90;;;;;;5050567;28;20045;-77
2024/02/08 02:14:44;;;;;;;116.10;47.83;;;1.10;99.90;;;;;;5052947;28;20052;-77
2024/02/08 02:17:12;;;;;;;121.35;47.08;;;1.10;99.90;;;;;;5053361;28;20117;-77
2024/02/08 02:19:40;;;;;;;122.72;50.55;;;1.20;99.90;;;;;;5056026;28;20048;-77
2024/02/08 02:22:09;;;;;;;139.02;49.67;;;1.30;99.90;;;;;;5061662;28;20048;-76
2024/02/08 02:24:40;;;;;;;116.60;47.22;;;1.40;99.90;;;;;;5055645;28;20052;-76
2024/02/08 02:27:09;;;;;;;132.63;47.80;;;1.40;99.90;;;;;;5051787;28;20141;-77
2024/02/08 02:29:38;;;;;;;139.25;48.47;;;1.30;99.90;;;;;;5052780;28;20098;-77
2024/02/08 02:32:11;;;;;;;126.07;47.25;;;1.30;99.90;;;;;;5052874;28;20541;-76
2024/02/08 02:34:41;;;;;;;135.77;47.15;;;1.30;99.90;;;;;;5070074;28;20136;-76
2024/02/08 02:37:09;;;;;;;133.00;47.50;;;1.20;99.90;;;;;;5067330;28;20032;-76
2024/02/08 02:39:36;;;;;;;137.88;45.97;;;1.20;99.90;;;;;;5053358;28;20074;-76
2024/02/08 02:42:03;;;;;;;126.68;46.63;;;1.20;99.90;;;;;;5033331;28;20103;-76
2024/02/08 02:44:30;;;;;;;135.75;47.35;;;1.20;99.90;;;;;;5051405;28;20060;-77
2024/02/08 02:46:59;;;;;;;156.55;48.70;;;1.10;99.90;;;;;;5057064;28;20648;-77
2024/02/08 02:49:29;;;;;;;142.60;48.25;;;1.10;99.90;;;;;;5068857;28;20040;-75
2024/02/08 02:51:59;;;;;;;127.55;47.88;;;1.10;99.90;;;;;;5051586;28;20045;-75
2024/02/08 02:54:30;;;;;;;123.03;48.30;;;1.20;99.90;;;;;;5051981;28;20053;-75
2024/02/08 02:56:57;;;;;;;134.68;51.40;;;1.20;99.90;;;;;;5052599;28;20135;-75
2024/02/08 02:59:26;;;;;;;134.52;50.83;;;1.20;99.90;;;;;;5049223;28;20045;-77
2024/02/08 03:01:55;;;;;;;150.93;55.10;;;1.20;99.90;;;;;;5053703;28;20060;-76
2024/02/08 03:04:23;;;;;;;148.15;53.45;;;1.30;99.90;;;;;;5048427;28;20072;-76
2024/02/08 03:06:53;;;;;;;141.25;55.17;;;1.20;99.90;;;;;;5047669;28;20083;-75
2024/02/08 03:09:27;;;;;;;145.98;54.90;;;1.20;99.90;;;;;;5049148;28;20060;-76
2024/02/08 03:11:57;;;;;;;144.32;54.53;;;1.20;99.90;;;;;;5051049;28;20079;-76
2024/02/08 03:14:25;;;;;;;129.63;48.92;;;1.20;99.90;;;;;;5046566;28;20048;-75
2024/02/08 03:16:52;;;;;;;114.75;48.17;;;1.30;99.90;;;;;;5049021;28;21276;-75
2024/02/08 03:19:20;;;;;;;122.90;47.90;;;1.40;99.90;;;;;;5055250;28;20036;-75
2024/02/08 03:21:49;;;;;;;138.15;47.05;;;1.30;99.90;;;;;;5045825;28;20543;-76
2024/02/08 03:24:19;;;;;;;123.03;45.35;;;1.30;99.90;;;;;;5064301;28;20044;-75
2024/02/08 03:26:47;;;;;;;128.50;48.45;;;1.30;99.90;;;;;;5051650;28;20052;-76
2024/02/08 03:29:15;;;;;;;136.48;47.55;;;1.30;99.90;;;;;;5047528;28;20724;-76
2024/02/08 03:31:47;;;;;;;124.28;47.78;;;1.40;99.90;;;;;;5048845;28;20554;-76
2024/02/08 03:34:29;;;;;;;130.65;47.35;;;1.40;99.90;;;;;;5050417;28;20119;-76
2024/02/08 03:36:57;;;;;;;139.82;48.30;;;1.40;99.90;;;;;;5048748;28;20041;-76
2024/02/08 03:39:27;;;;;;;111.75;45.28;;;1.50;99.90;;;;;;5051984;28;21147;-76
2024/02/08 03:41:56;;;;;;;118.53;46.70;;;1.40;99.90;;;;;;5050529;28;20048;-76
2024/02/08 03:44:23;;;;;;;127.30;48.50;;;1.40;99.90;;;;;;5051953;28;20051;-76
2024/02/08 03:46:53;;;;;;;133.05;48.47;;;1.50;99.90;;;;;;5046289;28;20123;-77
2024/02/08 03:49:20;;;;;;;119.93;44.53;;;1.40;99.90;;;;;;5041770;28;20578;-76
2024/02/08 03:51:48;;;;;;;122.93;48.05;;;1.30;99.90;;;;;;5045268;28;20044;-76
2024/02/08 03:54:19;;;;;;;131.63;46.92;;;1.30;99.90;;;;;;5045924;28;20404;-76
2024/02/08 03:56:49;;;;;;;145.98;51.90;;;1.40;99.90;;;;;;5048399;28;20049;-77
2024/02/08 03:59:26;;;;;;;115.30;48.63;;;1.40;99.90;;;;;;5051836;28;20542;-77
2024/02/08 04:02:05;;;;;;;133.27;48.95;;;1.30;99.90;;;;;;5046026;28;20052;-77
2024/02/08 04:04:53;;;;;;;101.15;45.47;;;1.30;99.90;;;;;;5045506;28;20372;-76
2024/02/08 04:07:22;;;;;;;111.68;43.90;;;1.40;99.90;;;;;;5046950;28;20500;-76
2024/02/08 04:09:55;;;;;;;129.10;48.05;;;1.30;99.90;;;;;;5050378;28;20044;-76
2024/02/08 04:54:02;;;;;;;117.80;47.83;;;1.50;99.90;;;;;;5062251;28;20072;-75
2024/02/08 04:56:31;;;;;;;120.95;47.85;;;1.50;99.90;;;;;;5052314;28;20044;-75
2024/02/08 04:58:59;;;;;;;125.72;49.85;;;1.40;99.90;;;;;;5059217;28;20041;-75
2024/02/08 05:01:46;;;;;;;129.90;47.65;;;1.30;99.90;;;;;;5047464;28;20064;-75
2024/02/08 05:04:13;;;;;;;121.50;47.83;;;1.20;99.90;;;;;;5052820;28;20135;-75
2024/02/08 05:06:43;;;;;;;120.55;48.33;;;1.30;99.90;;;;;;5046293;28;20064;-75
2024/02/08 05:09:15;;;;;;;122.82;48.40;;;1.30;99.90;;;;;;5058300;28;20047;-75
2024/02/08 05:11:43;;;;;;;120.93;48.13;;;1.30;99.90;;;;;;5048552;28;20040;-75
2024/02/08 05:14:10;;;;;;;128.65;50.53;;;1.40;99.90;;;;;;5059435;28;20603;-76
2024/02/08 05:16:39;;;;;;;118.80;53.28;;;1.40;99.90;;;;;;5053142;28;20045;-75
2024/02/08 05:19:09;;;;;;;119.43;51.67;;;1.50;99.90;;;;;;5060736;28;20059;-76
2024/02/08 05:21:41;;;;;;;123.15;51.55;;;1.50;99.90;;;;;;5047556;28;20052;-76
2024/02/08 05:24:12;;;;;;;121.43;49.58;;;1.50;99.90;;;;;;5053962;28;20068;-76
2024/02/08 05:26:40;;;;;;;133.43;53.40;;;1.50;99.90;;;;;;5067395;22;20067;-76
2024/02/08 05:29:13;;;;;;;117.82;50.90;;;1.40;99.90;;;;;;5083715;27;20645;-78
2024/02/08 05:31:41;;;;;;;122.43;54.65;;;1.30;99.90;;;;;;5066839;28;20872;-78
2024/02/08 05:34:10;;;;;;;113.72;52.63;;;1.40;99.90;;;;;;5072911;28;20052;-78
2024/02/08 05:36:44;;;;;;;148.70;60.17;;;1.40;99.90;;;;;;5067507;28;20047;-78
2024/02/08 05:39:21;;;;;;;138.80;58.67;;;1.40;99.90;;;;;;5074052;28;20048;-78
2024/02/08 05:41:56;;;;;;;150.18;55.80;;;1.40;99.90;;;;;;5088942;27;20565;-78
2024/02/08 05:44:29;;;;;;;;;;;1.40;99.90;;;;;;5065305;28;20167;-77
2024/02/08 05:47:06;;;;;;;149.35;62.03;;;1.50;99.90;;;;;;5086182;27;19927;-76
2024/02/08 05:49:33;;;;;;;139.45;57.40;;;1.40;99.90;;;;;;5053655;28;20132;-77
2024/02/08 05:52:05;;;;;;;119.18;55.55;;;1.30;99.90;;;;;;5069830;28;20539;-77
2024/02/08 05:54:36;;;;;;;138.43;58.55;;;1.30;99.90;;;;;;5069343;28;20048;-76
2024/02/08 05:57:06;;;;;;;128.80;57.25;;;1.20;99.90;;;;;;5067396;28;20047;-77
2024/02/08 05:59:36;;;;;;;139.55;61.40;;;1.30;99.90;;;;;;5069687;28;20074;-76
2024/02/08 06:02:13;;;;;;;131.90;61.28;;;1.20;99.90;;;;;;5066609;28;20040;-77
2024/02/08 06:04:41;;;;;;;128.70;62.17;;;1.20;99.90;;;;;;5062257;28;20504;-76
2024/02/08 06:07:08;;;;;;;152.70;59.47;;;1.10;99.90;;;;;;5084552;27;20044;-76
2024/02/08 06:12:42;;;;;;;143.57;60.67;;;1.20;99.90;;;;;;5066920;28;20040;-76
2024/02/08 06:15:21;;;;;;;151.60;55.85;;;1.20;99.90;;;;;;5070063;28;20613;-77
2024/02/08 06:17:57;;;;;;;138.10;55.97;;;1.30;99.90;;;;;;5073112;28;20043;-77
2024/02/08 06:20:33;;;;;;;137.13;55.30;;;1.30;99.90;;;;;;5075832;28;20073;-77
2024/02/08 06:23:17;;;;;;;135.82;54.97;;;1.10;99.90;;;;;;5070293;28;20044;-78
2024/02/08 06:26:27;;;;;;;147.52;56.58;;;1.10;99.90;;;;;;5086667;27;20113;-77
2024/02/08 06:28:55;;;;;;;138.77;61.88;;;1.10;99.90;;;;;;5067583;28;20059;-77
2024/02/08 06:31:29;;;;;;;139.93;56.72;;;1.00;99.90;;;;;;5067441;28;20880;-77
2024/02/08 06:37:15;;;;;;;105.25;52.17;;;1.10;99.90;;;;;;5073870;28;20094;-77
2024/02/08 06:39:44;;;;;;;110.55;50.10;;;1.00;99.90;;;;;;5067936;28;20051;-77
2024/02/08 07:37:36;;;;;;;110.55;56.97;;;1.60;99.90;;;;;;5079643;28;20696;-78
2024/02/08 07:40:23;;;;;;;113.75;59.28;;;1.60;99.90;;;;;;5069085;28;20047;-78
2024/02/08 07:42:52;;;;;;;138.88;65.45;;;1.70;99.90;;;;;;5078172;28;20052;-78
2024/02/08 07:45:26;;;;;;;118.40;61.80;;;1.80;99.90;;;;;;5075371;28;20153;-77
2024/02/08 07:48:08;;;;;;;126.93;63.97;;;1.80;99.90;;;;;;5075968;28;20442;-77
2024/02/08 07:50:37;;;;;;;119.35;63.42;;;1.80;99.90;;;;;;5067482;28;20048;-77
2024/02/08 07:53:19;;;;;;;107.43;57.83;;;1.80;99.90;;;;;;5070333;28;20748;-78
2024/02/08 07:55:53;;;;;;;107.80;56.58;;;1.70;99.90;;;;;;5071970;28;20042;-78
2024/02/08 07:58:20;;;;;;;104.93;56.38;;;1.60;99.90;;;;;;5074377;28;20044;-78
2024/02/08 08:00:49;;;;;;;103.05;51.45;;;1.50;99.90;;;;;;5069429;28;20451;-77
2024/02/08 08:03:16;;;;;;;92.30;52.17;;;1.50;99.90;;;;;;5065172;28;20093;-78
2024/02/08 08:05:45;;;;;;;97.68;53.92;;;1.60;99.90;;;;;;5073043;28;20044;-78
2024/02/08 08:08:25;;;;;;;97.78;53.03;;;1.60;99.90;;;;;;5081581;28;20105;-78
2024/02/08 08:11:02;;;;;;;109.25;55.97;;;1.60;99.90;;;;;;5078083;28;20077;-78
2024/02/08 08:19:19;;;;;;;85.35;47.05;;;1.80;99.90;;;;;;5067872;28;20080;-78
2024/02/08 08:22:03;;;;;;;96.45;50.58;;;1.70;99.90;;;;;;5055752;28;20319;-79
2024/02/08 08:24:42;;;;;;;704.38;127.05;;;1.70;99.90;;;;;;5069902;28;20078;-79
2024/02/08 08:27:32;;;;;;;138.40;56.63;;;1.70;99.90;;;;;;5057215;28;20048;-78
2024/02/08 08:30:03;;;;;;;1627.47;278.95;;;1.70;99.90;;;;;;5080068;28;20048;-79
2024/02/08 08:37:46;;;;;;;138.82;51.92;;;1.70;99.90;;;;;;5081774;28;20040;-79
2024/02/08 08:40:37;;;;;;;85.45;46.42;;;1.80;99.90;;;;;;5069908;28;20082;-79
2024/02/08 08:43:10;;;;;;;238.32;61.33;;;1.80;99.90;;;;;;5073605;28;20137;-79
2024/02/08 08:45:40;;;;;;;112.85;49.45;;;1.70;99.90;;;;;;5069036;28;20044;-78
2024/02/08 08:48:08;;;;;;;367.80;78.13;;;1.70;99.90;;;;;;5078027;28;21331;-78
2024/02/08 08:50:35;;;;;;;82.38;46.03;;;1.70;99.90;;;;;;5090021;27;20048;-79
2024/02/08 08:53:16;;;;;;;81.57;47.50;;;1.70;99.90;;;;;;5071733;28;20048;-79
2024/02/08 08:55:49;;;;;;;78.15;48.30;;;1.70;99.90;;;;;;5057071;28;20160;-79
2024/02/08 08:58:22;;;;;;;76.25;49.33;;;1.90;99.90;;;;;;5073362;28;20051;-79
2024/02/08 09:00:58;;;;;;;91.47;50.70;;;1.90;99.90;;;;;;5070551;28;20067;-81
2024/02/08 09:03:27;;;;;;;135.30;53.25;;;2.00;99.90;;;;;;5077144;28;20047;-80
2024/02/08 09:05:58;;;;;;;107.55;53.92;;;2.00;99.90;;;;;;5052995;28;20044;-80
2024/02/08 09:08:34;;;;;;;96.28;50.17;;;2.00;99.90;;;;;;5058648;28;20595;-80
2024/02/08 09:11:05;;;;;;;67.82;43.55;;;2.00;99.90;;;;;;5071565;28;20136;-80
2024/02/08 09:13:37;;;;;;;79.18;45.13;;;1.90;99.90;;;;;;5072499;28;20044;-80
2024/02/08 09:21:35;;;;;;;81.43;41.90;;;2.10;99.90;;;;;;5078184;28;20110;-78
2024/02/08 09:24:07;;;;;;;61.85;39.55;;;2.10;99.90;;;;;;5069296;28;20047;-79
2024/02/08 09:26:52;;;;;;;73.55;39.33;;;2.10;99.90;;;;;;5071835;28;20503;-79
2024/02/08 09:29:25;;;;;;;65.65;38.53;;;2.20;99.90;;;;;;5075329;28;20052;-81
2024/02/08 09:32:14;;;;;;;65.45;35.85;;;2.30;99.90;;;;;;5072861;28;20722;-79
2024/02/08 09:34:41;;;;;;;70.40;35.45;;;2.40;99.90;;;;;;5051835;28;20063;-79
2024/02/08 09:37:10;;;;;;;58.65;32.60;;;2.40;99.90;;;;;;5056454;28;20163;-78
2024/02/08 09:42:26;;;;;;;66.20;31.48;;;2.40;99.90;;;;;;5083374;27;20055;-77
2024/02/08 09:45:13;;;;;;;64.30;33.92;;;2.50;99.90;;;;;;5086128;27;20617;-78
2024/02/08 09:47:51;;;;;;;60.28;31.85;;;2.40;99.90;;;;;;5070388;28;20097;-77
2024/02/08 09:50:50;;;;;;;50.85;28.90;;;2.60;99.90;;;;;;5062541;28;20619;-77
2024/02/08 09:53:28;;;;;;;45.42;25.20;;;2.60;99.90;;;;;;5054281;28;20122;-77
2024/02/08 09:56:15;;;;;;;47.72;26.25;;;2.40;99.90;;;;;;5056843;28;20131;-77
2024/02/08 09:58:55;;;;;;;45.58;24.42;;;2.50;99.90;;;;;;5079524;28;20044;-80
2024/02/08 10:01:42;;;;;;;55.33;28.83;;;2.50;99.90;;;;;;5087557;27;20518;-80
2024/02/08 10:04:19;;;;;;;43.47;23.25;;;2.60;99.90;;;;;;5075192;28;20053;-81
2024/02/08 10:06:56;;;;;;;59.17;30.05;;;2.60;99.90;;;;;;5071348;28;20044;-80
2024/02/08 10:09:46;;;;;;;41.03;20.20;;;2.60;99.90;;;;;;5073113;28;20134;-77
2024/02/08 10:12:30;;;;;;;56.38;26.25;;;2.60;99.90;;;;;;5073011;28;20044;-78
2024/02/08 10:14:59;;;;;;;50.38;22.15;;;2.60;99.90;;;;;;5071520;28;20042;-77
2024/02/08 10:17:42;;;;;;;36.03;18.30;;;2.60;99.90;;;;;;5070478;28;20047;-77
2024/02/08 10:28:22;;;;;;;32.15;18.25;;;2.80;99.90;;;;;;5071719;28;20048;-77
2024/02/08 10:30:57;;;;;;;40.35;22.27;;;2.80;99.90;;;;;;5068916;28;20533;-78
2024/02/08 10:33:35;;;;;;;42.20;20.27;;;2.80;99.90;;;;;;5069423;28;20102;-77
2024/02/08 10:36:10;;;;;;;42.90;19.63;;;2.90;99.90;;;;;;5070188;28;20469;-78
2024/02/08 10:38:55;;;;;;;54.47;24.80;;;3.00;99.90;;;;;;5070263;28;20048;-77
2024/02/08 10:41:57;;;;;;;38.15;20.95;;;3.00;99.90;;;;;;5070844;28;20047;-78
2024/02/08 10:44:32;;;;;;;42.65;20.73;;;3.00;99.90;;;;;;5082441;28;20104;-78
2024/02/08 10:47:06;;;;;;;;;;;3.00;99.90;;;;;;5065164;28;20051;-78
2024/02/08 10:49:42;;;;;;;26.83;15.15;;;3.00;99.90;;;;;;5061144;28;19920;-77
2024/02/08 10:52:19;;;;;;;48.70;25.70;;;3.00;99.90;;;;;;5052322;28;20040;-78
2024/02/08 10:54:53;;;;;;;83.70;40.13;;;3.00;99.90;;;;;;5067113;28;20040;-78
2024/02/08 11:03:28;;;;;;;36.00;18.45;;;3.20;99.90;;;;;;5071646;28;20079;-78
2024/02/08 11:08:36;;;;;;;30.27;19.15;;;3.10;99.90;;;;;;5073331;28;20052;-77
2024/02/08 11:11:09;;;;;;;32.90;20.90;;;3.00;99.90;;;;;;5065374;28;20106;-77
2024/02/08 11:13:45;;;;;;;34.30;20.63;;;3.10;99.90;;;;;;5068851;28;20052;-77
2024/02/08 11:16:20;;;;;;;33.50;17.90;;;3.20;99.90;;;;;;5062766;28;20042;-77
2024/02/08 11:18:54;;;;;;;30.58;19.13;;;3.20;99.90;;;;;;5065926;28;20048;-77
2024/02/08 11:21:28;;;;;;;27.20;19.00;;;3.30;99.90;;;;;;5067661;28;20046;-78
2024/02/08 11:23:57;;;;;;;33.38;19.52;;;3.30;99.90;;;;;;5080667;28;20082;-77
2024/02/08 11:26:26;;;;;;;33.45;19.92;;;3.30;99.90;;;;;;5067220;28;20044;-79
2024/02/08 11:29:01;;;;;;;31.33;19.40;;;3.30;99.90;;;;;;5066627;28;20131;-77
2024/02/08 11:31:32;;;;;;;30.58;20.83;;;3.40;99.90;;;;;;5067950;28;20051;-78
2024/02/08 11:34:13;;;;;;;28.23;19.55;;;3.40;99.90;;;;;;5071382;28;20051;-77
2024/02/08 11:36:52;;;;;;;84.55;24.92;;;3.30;99.90;;;;;;5084565;28;20044;-77
2024/02/08 11:39:29;;;;;;;58.80;24.48;;;3.30;99.90;;;;;;5069410;28;20108;-79
2024/02/08 11:42:00;;;;;;;30.00;18.50;;;3.40;99.90;;;;;;5068901;28;20076;-78
2024/02/08 11:44:35;;;;;;;47.55;21.90;;;3.40;99.90;;;;;;5068165;28;20048;-79
2024/02/08 11:47:37;;;;;;;32.25;17.85;;;3.50;99.90;;;;;;5068376;28;20051;-78
2024/02/08 11:50:03;;;;;;;77.78;22.42;;;3.50;99.90;;;;;;5068799;28;20055;-78
2024/02/08 11:52:31;;;;;;;;;;;3.50;99.90;;;;;;5067329;28;20054;-79
2024/02/08 11:55:10;;;;;;;35.72;21.45;;;3.50;99.90;;;;;;5071760;28;20420;-78
2024/02/08 11:57:40;;;;;;;43.65;20.77;;;3.50;99.90;;;;;;5078328;28;20045;-79
2024/02/08 12:00:17;;;;;;;45.47;20.63;;;3.50;99.90;;;;;;5066921;28;20043;-79
2024/02/08 12:03:01;;;;;;;45.00;22.95;;;3.50;99.90;;;;;;5065950;28;20052;-80
2024/02/08 12:05:29;;;;;;;41.88;23.20;;;3.70;99.90;;;;;;5054587;28;20079;-79
2024/02/08 12:08:08;;;;;;;32.30;20.80;;;3.70;99.90;;;;;;5087206;28;20047;-81
2024/02/08 12:10:36;;;;;;;29.40;21.00;;;3.80;99.90;;;;;;5053025;28;20580;-78
2024/02/08 12:13:05;;;;;;;38.20;20.60;;;3.70;99.90;;;;;;5088431;28;20501;-80
2024/02/08 12:15:34;;;;;;;52.15;22.15;;;3.60;99.90;;;;;;5061013;28;20131;-78
2024/02/08 12:18:09;;;;;;;63.53;22.13;;;3.60;99.90;;;;;;5070325;28;20139;-77
2024/02/08 12:20:36;;;;;;;39.78;22.05;;;3.50;99.90;;;;;;5068286;28;20063;-78
2024/02/08 12:23:04;;;;;;;34.75;19.50;;;3.60;99.90;;;;;;5071353;28;20687;-78
2024/02/08 12:25:31;;;;;;;28.52;19.30;;;3.60;99.90;;;;;;5087138;28;20055;-78
2024/02/08 12:28:04;;;;;;;39.97;21.98;;;3.60;99.90;;;;;;5081791;28;20549;-77
2024/02/08 12:30:39;;;;;;;30.75;20.60;;;3.50;99.90;;;;;;5070383;28;20404;-78
2024/02/08 12:33:08;;;;;;;37.90;21.00;;;3.50;99.90;;;;;;5088972;28;20036;-78
2024/02/08 12:35:40;;;;;;;29.75;20.25;;;3.50;99.90;;;;;;5067408;28;20032;-79
2024/02/08 12:38:11;;;;;;;24.88;17.10;;;3.50;99.90;;;;;;5081588;28;21525;-78
2024/02/08 12:40:39;;;;;;;28.80;19.80;;;3.50;99.90;;;;;;5084424;28;20080;-78
2024/02/08 12:43:08;;;;;;;32.80;20.00;;;3.50;99.90;;;;;;5074488;28;20048;-79
2024/02/08 12:45:37;;;;;;;30.45;18.98;;;3.50;99.90;;;;;;5061557;28;20045;-79
2024/02/08 12:48:07;;;;;;;32.47;19.23;;;3.50;99.90;;;;;;5069356;28;20079;-79
2024/02/08 12:50:37;;;;;;;70.85;25.65;;;3.50;99.90;;;;;;5066395;28;20043;-78
2024/02/08 12:53:12;;;;;;;29.33;19.27;;;3.50;99.90;;;;;;5070738;28;20040;-81
2024/02/08 12:55:40;;;;;;;;;;;3.50;99.90;;;;;;5074487;28;20500;-79
2024/02/08 12:58:13;;;;;;;36.58;19.52;;;3.50;99.90;;;;;;5093209;27;20422;-80
2024/02/08 13:00:40;;;;;;;27.10;15.90;;;3.40;99.90;;;;;;5077314;28;20036;-80
2024/02/08 13:03:08;;;;;;;35.47;17.70;;;3.30;99.90;;;;;;5058406;28;20051;-79
2024/02/08 13:05:39;;;;;;;29.67;17.35;;;3.30;99.90;;;;;;5059168;28;20151;-82
2024/02/08 13:08:19;;;;;;;32.70;17.27;;;3.20;99.90;;;;;;5071271;28;20044;-81
2024/02/08 13:10:54;;;;;;;30.13;17.80;;;3.10;99.90;;;;;;5078315;28;20094;-79
2024/02/08 13:13:25;;;;;;;32.85;17.80;;;3.00;99.90;;;;;;5078270;28;20041;-79
2024/02/08 13:15:58;;;;;;;26.85;15.60;;;2.90;99.90;;;;;;5075986;28;20043;-80
2024/02/08 13:18:31;;;;;;;31.45;16.15;;;2.90;99.90;;;;;;5082263;28;20199;-80
2024/02/08 13:20:59;;;;;;;33.70;17.40;;;2.80;99.90;;;;;;5058676;28;20449;-82
2024/02/08 13:23:29;;;;;;;26.25;15.43;;;2.80;99.90;;;;;;5062458;28;20072;-79
2024/02/08 13:25:57;;;;;;;30.50;16.77;;;2.80;99.90;;;;;;5082153;28;20046;-82
2024/02/08 13:28:25;;;;;;;34.03;17.02;;;2.90;99.90;;;;;;5086648;28;20135;-81
2024/02/08 13:30:53;;;;;;;34.03;16.05;;;2.90;99.90;;;;;;5071424;28;20041;-79
2024/02/08 13:33:20;;;;;;;33.25;16.67;;;2.90;99.90;;;;;;5074776;28;20028;-79
2024/02/08 13:35:48;;;;;;;35.83;18.95;;;2.90;99.90;;;;;;5071309;28;20036;-79
2024/02/08 13:38:15;;;;;;;37.60;18.35;;;2.80;99.90;;;;;;5078524;28;20055;-78
2024/02/08 13:40:42;;;;;;;36.10;18.85;;;2.90;99.90;;;;;;5064122;28;20043;-77
2024/02/08 13:43:12;;;;;;;36.45;17.02;;;2.90;99.90;;;;;;5073977;28;20564;-78
2024/02/08 13:45:40;;;;;;;35.85;17.60;;;2.80;99.90;;;;;;5076370;28;20455;-78
2024/02/08 13:48:12;;;;;;;33.55;16.50;;;2.90;99.90;;;;;;5082561;28;20058;-78
2024/02/08 13:50:43;;;;;;;52.72;25.00;;;2.90;99.90;;;;;;5057659;28;20064;-79
2024/02/08 13:53:21;;;;;;;32.60;17.30;;;2.90;99.90;;;;;;5073258;28;20129;-78
2024/02/08 13:55:52;;;;;;;32.45;16.88;;;2.90;99.90;;;;;;5066278;28;20115;-78
2024/02/08 13:58:25;;;;;;;42.13;20.83;;;2.90;99.90;;;;;;5079853;28;20040;-79
2024/02/08 14:00:54;;;;;;;38.10;20.48;;;2.90;99.90;;;;;;5071530;28;20051;-79
2024/02/08 14:03:22;;;;;;;51.17;25.02;;;2.90;99.90;;;;;;5078955;28;20043;-79
2024/02/08 14:05:51;;;;;;;35.30;17.85;;;3.00;99.90;;;;;;5086952;27;20066;-79
2024/02/08 14:08:23;;;;;;;34.35;16.42;;;3.10;99.90;;;;;;5082134;28;20043;-79
2024/02/08 14:10:50;;;;;;;41.03;21.25;;;3.00;99.90;;;;;;5066635;28;20068;-80
2024/02/08 14:13:28;;;;;;;54.97;23.92;;;3.00;99.90;;;;;;5076082;28;20036;-79
2024/02/08 14:16:00;;;;;;;33.47;17.45;;;2.90;99.90;;;;;;5067692;28;20040;-80
2024/02/08 14:18:30;;;;;;;48.92;22.67;;;2.80;99.90;;;;;;5082984;28;20420;-79
2024/02/08 14:21:02;;;;;;;56.45;19.05;;;2.80;99.90;;;;;;5093746;27;20047;-78
2024/02/08 14:23:30;;;;;;;34.55;16.15;;;2.80;99.90;;;;;;5082047;28;20047;-78
2024/02/08 14:28:48;;;;;;;42.83;19.45;;;2.70;99.90;;;;;;5085747;28;20115;-78
2024/02/08 14:31:15;;;;;;;42.45;20.98;;;2.60;99.90;;;;;;5082474;28;20756;-79
2024/02/08 14:33:46;;;;;;;32.58;16.35;;;2.60;99.90;;;;;;5070895;28;20056;-79
2024/02/08 14:36:18;;;;;;;43.03;21.23;;;2.50;99.90;;;;;;5073046;28;20036;-79
2024/02/08 14:38:46;;;;;;;171.63;41.00;;;2.50;99.90;;;;;;5080183;28;20119;-79
2024/02/08 14:56:43;;;;;;;63.60;24.95;;;2.50;99.90;;;;;;4971636;27;1244992;-73
2024/02/08 14:59:13;;;;;;;45.60;24.08;;;2.50;99.90;;;;;;4976975;28;20137;-71
2024/02/08 15:01:41;;;;;;;56.58;25.25;;;2.60;99.90;;;;;;4981042;28;20046;-72
2024/02/08 15:04:16;;;;;;;64.97;22.77;;;2.60;99.90;;;;;;4979000;28;20058;-73
2024/02/08 15:14:45;;;;;;;47.53;19.08;;;2.60;99.90;;;;;;4985733;28;20061;-72
2024/02/08 15:17:18;;;;;;;31.95;16.65;;;2.50;99.90;;;;;;4980332;28;20054;-72
2024/02/08 15:19:46;;;;;;;27.15;16.27;;;2.50;99.90;;;;;;4980914;28;20313;-72
2024/02/08 15:25:04;;;;;;;27.40;15.48;;;2.40;99.90;;;;;;4998040;28;20074;-82
2024/02/08 15:27:47;;;;;;;44.80;17.38;;;2.40;99.90;;;;;;4998234;28;20042;-81
2024/02/08 15:30:17;;;;;;;27.70;14.88;;;2.50;99.90;;;;;;4985520;28;20042;-83
2024/02/08 15:35:38;;;;;;;25.33;12.82;;;2.50;99.90;;;;;;5010432;28;20493;-82
2024/02/08 15:40:55;;;;;;;27.15;13.55;;;2.60;99.90;;;;;;5007887;28;20042;-83
2024/02/08 15:43:25;;;;;;;23.58;12.55;;;2.60;99.90;;;;;;4999270;28;20045;-83
2024/02/08 15:45:53;;;;;;;24.30;13.25;;;2.70;99.90;;;;;;4986424;28;20057;-82
2024/02/08 15:48:34;;;;;;;18.25;11.90;;;2.70;99.90;;;;;;4996188;28;20050;-82
2024/02/08 15:51:08;;;;;;;21.17;13.00;;;2.60;99.90;;;;;;4970871;28;20069;-82